Harumaru No.3 — JD3839 — position and weather

sailwx.info

Track history (hours):
 
Tides and Currents Weather Stations Pressure Air Temp Water Temp Dewpoint Dewpoint Depression Visibility Wind Speed Wind Dir Waves Ship Positions

Harumaru No.3

Last reported at 2018-Jun-23 22:08 UTC. Time now 2018-Jun-24 14:27 UTC.
Position N 35°35' E 140°06'.

Length 154 m; draft 6.5 m.

Type: Cargo ship. MMSI: 431006912.

Date/timePositionNaut miles runAvg speedWind from/ knotsBaromVisibWave heightAir tempDewpointWater temp
2018-Jun-23 22:08N 35°35' E 140°06'210.0
2018-Jun-23 21:54N 35°35' E 140°03'614.3
2018-Jun-23 21:30N 35°32' E 139°57'713.8
2018-Jun-23 21:00N 35°28' E 139°51'713.1
2018-Jun-23 20:30N 35°23' E 139°46'611.2
2018-Jun-23 20:00N 35°17' E 139°46'612.6
2018-Jun-23 19:31N 35°11' E 139°47'918.6
2018-Jun-23 19:00N 35°03' E 139°41'23617.4
2018-Jun-23 05:26N 33°42' E 135°12'920.6
2018-Jun-23 05:00N 33°48' E 135°05'1019.6
2018-Jun-23 04:30N 33°57' E 134°59'1020.3
2018-Jun-23 04:01N 34°07' E 134°59'1121.6
2018-Jun-23 03:30N 34°18' E 134°59'1019.3
2018-Jun-23 03:00N 34°25' E 135°06'917.3
2018-Jun-23 02:30N 34°30' E 135°15'4 6.9
2018-Jun-23 02:00N 34°31' E 135°19'0 0.1
2018-Jun-23 01:30N 34°31' E 135°19'0 0.4
2018-Jun-23 01:00N 34°31' E 135°19'2 4.1
2018-Jun-23 00:30N 34°32' E 135°21'2 4.6
2018-Jun-22 23:59N 34°31' E 135°24'0 0.0
2018-Jun-22 23:29N 34°31' E 135°24'0 0.0
2018-Jun-22 22:59N 34°31' E 135°24'0 0.0
2018-Jun-22 22:23N 34°31' E 135°24'0 0.0
2018-Jun-22 21:59N 34°31' E 135°24'0 0.0
2018-Jun-22 21:29N 34°31' E 135°24'0 0.4
2018-Jun-22 21:00N 34°31' E 135°24'713.1
2018-Jun-22 20:30N 34°33' E 135°17'1020.4
2018-Jun-22 20:01N 34°35' E 135°05'917.2
2018-Jun-22 19:30N 34°35' E 134°54'1019.8
2018-Jun-22 19:00N 34°31' E 134°43'1020.6
2018-Jun-22 18:31N 34°27' E 134°32'1020.7
2018-Jun-22 18:01N 34°24' E 134°20'1018.0
2018-Jun-22 17:29N 34°26' E 134°09'613.4
2018-Jun-22 17:00N 34°25' E 134°01'5 0.6
2018-Jun-22 07:58N 34°25' E 133°55'20 5.9
2018-Jun-22 04:32N 34°35' E 134°16'120.3
2018-Jun-22 04:30N 34°35' E 134°17'1020.4
2018-Jun-22 04:00N 34°34' E 134°29'1020.1
2018-Jun-22 03:30N 34°33' E 134°41'1019.7
2018-Jun-22 03:00N 34°35' E 134°53'816.9
2018-Jun-22 02:30N 34°36' E 135°03'918.8
2018-Jun-22 02:00N 34°34' E 135°14'815.9
2018-Jun-22 01:30N 34°32' E 135°24'1 1.3
2018-Jun-22 00:51N 34°31' E 135°24'0 0.0
2018-Jun-22 00:27N 34°31' E 135°24'0 0.0
2018-Jun-21 23:57N 34°31' E 135°24'0 0.0
2018-Jun-21 23:27N 34°31' E 135°24'0 0.0
2018-Jun-21 22:57N 34°31' E 135°24'0 0.3
2018-Jun-21 22:30N 34°31' E 135°24'4 8.2
2018-Jun-21 22:00N 34°32' E 135°19'1019.9
2018-Jun-21 21:30N 34°26' E 135°10'1020.4
2018-Jun-21 21:00N 34°19' E 135°01'1020.0
2018-Jun-21 20:30N 34°09' E 134°59'1020.9
2018-Jun-21 20:00N 33°58' E 134°58'1019.9
2018-Jun-21 19:30N 33°49' E 135°04'1121.0
2018-Jun-21 18:59N 33°41' E 135°12'24017.5
2018-Jun-21 05:17N 35°08' E 139°44'415.7
2018-Jun-21 05:00N 35°12' E 139°46'612.1
2018-Jun-21 04:30N 35°18' E 139°44'714.3
2018-Jun-21 04:01N 35°25' E 139°43'1019.9
2018-Jun-21 03:31N 35°31' E 139°53'12 0.4
2018-Jun-19 20:31N 35°36' E 140°07'1 2.3
2018-Jun-19 20:00N 35°35' E 140°05'612.1
2018-Jun-19 19:31N 35°33' E 139°59'815.0
2018-Jun-19 19:00N 35°28' E 139°51'714.7
2018-Jun-19 18:30N 35°23' E 139°45'611.6
2018-Jun-19 18:00N 35°17' E 139°46'612.8
2018-Jun-19 17:31N 35°10' E 139°46'917.5
2018-Jun-19 16:59N 35°02' E 139°42'23716.9
2018-Jun-19 02:59N 33°41' E 135°13'919.5
2018-Jun-19 02:30N 33°48' E 135°06'817.0
2018-Jun-19 02:00N 33°56' E 135°01'816.5
2018-Jun-19 01:31N 34°04' E 134°60'917.0
2018-Jun-19 01:00N 34°12' E 134°59'917.2
2018-Jun-19 00:30N 34°21' E 135°00'917.3
2018-Jun-19 00:00N 34°26' E 135°09'917.8
2018-Jun-18 23:29N 34°31' E 135°19'5 9.8
2018-Jun-18 23:00N 34°31' E 135°24'0 0.1
2018-Jun-18 22:27N 34°31' E 135°24'0 0.0
2018-Jun-18 21:57N 34°31' E 135°24'0 0.0
2018-Jun-18 21:15N 34°31' E 135°24'0 0.0
2018-Jun-18 21:00N 34°31' E 135°24'2 3.9
2018-Jun-18 20:29N 34°33' E 135°22'714.6
2018-Jun-18 20:00N 34°34' E 135°14'816.1
2018-Jun-18 19:30N 34°35' E 135°04'917.3
2018-Jun-18 18:58N 34°34' E 134°53'818.3
2018-Jun-18 18:30N 34°31' E 134°43'1019.3
2018-Jun-18 18:00N 34°27' E 134°33'1019.8
2018-Jun-18 17:30N 34°24' E 134°22'918.2
2018-Jun-18 17:00N 34°25' E 134°11'814.3
2018-Jun-18 16:29N 34°25' E 134°01'16 1.3
2018-Jun-18 04:00N 34°35' E 134°17'1020.3
2018-Jun-18 03:29N 34°34' E 134°30'1020.6
2018-Jun-18 03:00N 34°32' E 134°42'1221.8
2018-Jun-18 02:26N 34°36' E 134°56'920.2
2018-Jun-18 02:00N 34°36' E 135°06'1019.6
2018-Jun-18 01:31N 34°33' E 135°18'5 9.0
2018-Jun-18 00:54N 34°31' E 135°24'0 0.0
2018-Jun-18 00:24N 34°31' E 135°24'0 0.0
2018-Jun-17 23:48N 34°31' E 135°24'0 0.0
2018-Jun-17 23:30N 34°31' E 135°24'0 0.0
2018-Jun-17 23:00N 34°31' E 135°24'0 0.0
2018-Jun-17 22:30N 34°31' E 135°24'0 0.0
2018-Jun-17 22:00N 34°31' E 135°24'0 0.0
2018-Jun-17 21:24N 34°31' E 135°24'0 0.0
2018-Jun-17 21:00N 34°31' E 135°24'0 0.0
2018-Jun-17 20:30N 34°31' E 135°24'0 0.0
2018-Jun-17 19:54N 34°31' E 135°24'0 0.0
2018-Jun-17 19:30N 34°31' E 135°24'0 0.0
2018-Jun-17 19:00N 34°31' E 135°24'0 0.0
2018-Jun-17 18:30N 34°31' E 135°24'0 0.0
2018-Jun-17 18:00N 34°31' E 135°24'0 0.0
2018-Jun-17 17:30N 34°31' E 135°24'0 0.0
2018-Jun-17 16:48N 34°31' E 135°24'0 0.0
2018-Jun-17 16:30N 34°31' E 135°24'0 0.0
2018-Jun-17 16:00N 34°31' E 135°24'0 0.0
2018-Jun-17 15:30N 34°31' E 135°24'0 0.0
2018-Jun-17 15:00N 34°31' E 135°24'0 0.0
2018-Jun-17 14:30N 34°31' E 135°24'0 0.0
2018-Jun-17 14:00N 34°31' E 135°24'0 0.0
2018-Jun-17 13:30N 34°31' E 135°24'0 0.0
2018-Jun-17 12:54N 34°31' E 135°24'0 0.0
2018-Jun-17 12:30N 34°31' E 135°24'0 0.0
2018-Jun-17 12:00N 34°31' E 135°24'0 0.0
2018-Jun-17 11:30N 34°31' E 135°24'0 0.0
2018-Jun-17 11:00N 34°31' E 135°24'0 0.0
2018-Jun-17 10:30N 34°31' E 135°24'0 0.0
2018-Jun-17 10:00N 34°31' E 135°24'0 0.0
2018-Jun-17 09:30N 34°31' E 135°24'0 0.0
2018-Jun-17 09:00N 34°31' E 135°24'0 0.0
2018-Jun-17 08:24N 34°31' E 135°24'0 0.0
2018-Jun-17 08:00N 34°31' E 135°24'0 0.0
2018-Jun-17 07:30N 34°31' E 135°24'0 0.0
2018-Jun-17 07:00N 34°31' E 135°24'0 0.0
2018-Jun-17 06:30N 34°31' E 135°24'0 0.0
2018-Jun-17 06:00N 34°31' E 135°24'0 0.0
2018-Jun-17 05:30N 34°31' E 135°24'0 0.0
2018-Jun-17 04:54N 34°31' E 135°24'0 0.0
2018-Jun-17 04:18N 34°31' E 135°24'0 0.0
2018-Jun-17 03:54N 34°31' E 135°24'0 0.0
2018-Jun-17 03:18N 34°31' E 135°24'0 0.0
2018-Jun-17 02:54N 34°31' E 135°24'0 0.0
2018-Jun-17 02:30N 34°31' E 135°24'0 0.0
2018-Jun-17 02:00N 34°31' E 135°24'0 0.0
2018-Jun-17 01:24N 34°31' E 135°24'0 0.0
2018-Jun-17 01:00N 34°31' E 135°24'0 0.0
2018-Jun-17 00:30N 34°31' E 135°24'0 0.0
2018-Jun-17 00:00N 34°31' E 135°24'0 0.0
2018-Jun-16 23:30N 34°31' E 135°24'0 0.3
2018-Jun-16 23:00N 34°31' E 135°24'4 8.4
2018-Jun-16 22:30N 34°32' E 135°19'1019.3
2018-Jun-16 22:00N 34°26' E 135°10'1019.3
2018-Jun-16 21:30N 34°20' E 135°01'816.5
2018-Jun-16 21:00N 34°12' E 134°59'1019.8
2018-Jun-16 20:30N 34°02' E 134°59'1019.9
2018-Jun-16 20:00N 33°52' E 135°01'1019.7
2018-Jun-16 19:30N 33°45' E 135°08'24117.5
2018-Jun-16 05:44N 35°07' E 139°44'417.9
2018-Jun-16 05:30N 35°11' E 139°45'612.3
2018-Jun-16 05:00N 35°17' E 139°45'713.1
2018-Jun-16 04:30N 35°23' E 139°43'1020.7
2018-Jun-16 04:00N 35°30' E 139°52'918.3
2018-Jun-16 03:30N 35°35' E 140°02'3 0.4
2018-Jun-15 20:10N 35°35' E 140°06'2 9.6
2018-Jun-15 19:56N 35°35' E 140°03'715.2
2018-Jun-15 19:30N 35°32' E 139°56'816.0
2018-Jun-15 19:00N 35°26' E 139°49'612.6
2018-Jun-15 18:31N 35°21' E 139°45'510.9
2018-Jun-15 18:00N 35°16' E 139°47'712.8
2018-Jun-15 17:30N 35°09' E 139°46'917.7
2018-Jun-15 17:00N 35°02' E 139°41'23617.2
2018-Jun-15 03:18N 33°42' E 135°12'621.7
2018-Jun-15 03:01N 33°47' E 135°07'1020.4
2018-Jun-15 02:30N 33°55' E 135°00'918.0
2018-Jun-15 02:00N 34°04' E 134°59'918.1
2018-Jun-15 01:30N 34°13' E 134°59'917.6
2018-Jun-15 01:00N 34°22' E 135°01'918.1
2018-Jun-15 00:31N 34°27' E 135°10'917.6
2018-Jun-15 00:00N 34°31' E 135°19'4 4.4
2018-Jun-14 23:04N 34°31' E 135°24'0 0.0
2018-Jun-14 22:58N 34°31' E 135°24'0 0.0
2018-Jun-14 22:28N 34°31' E 135°24'0 0.0
2018-Jun-14 21:58N 34°31' E 135°24'0 0.0
2018-Jun-14 21:13N 34°31' E 135°24'0 0.2
2018-Jun-14 21:00N 34°31' E 135°24'2 4.6
2018-Jun-14 20:30N 34°33' E 135°22'714.5
2018-Jun-14 20:00N 34°33' E 135°13'917.8
2018-Jun-14 19:31N 34°36' E 135°03'1019.9
2018-Jun-14 19:00N 34°34' E 134°51'1020.4
2018-Jun-14 18:30N 34°30' E 134°40'1020.0
2018-Jun-14 18:01N 34°26' E 134°28'918.5
2018-Jun-14 17:30N 34°24' E 134°18'1318.2
2018-Jun-14 16:49N 34°26' E 134°03'514.3
2018-Jun-14 16:29N 34°25' E 133°57'19 1.6
2018-Jun-14 04:00N 34°35' E 134°17'1019.3
2018-Jun-14 03:30N 34°34' E 134°29'1020.0
2018-Jun-14 03:00N 34°33' E 134°41'1019.7
2018-Jun-14 02:30N 34°35' E 134°53'918.0
2018-Jun-14 02:00N 34°36' E 135°04'1019.4
2018-Jun-14 01:30N 34°34' E 135°15'815.1
2018-Jun-14 01:00N 34°32' E 135°24'0 0.7
2018-Jun-14 00:28N 34°31' E 135°24'0 0.0
2018-Jun-13 23:52N 34°31' E 135°24'0 0.0
2018-Jun-13 23:28N 34°31' E 135°24'0 0.0
2018-Jun-13 22:46N 34°31' E 135°24'0 0.1
2018-Jun-13 22:28N 34°31' E 135°24'  
Track history (hours):
 
Tides and Currents Weather Stations Pressure Air Temp Water Temp Dewpoint Dewpoint Depression Visibility Wind Speed Wind Dir Waves Ship Positions

Harumaru No.3

Last reported at 2018-Jun-23 22:08 UTC. Time now 2018-Jun-24 14:27 UTC.
Position N 35°35' E 140°06'.

Length 154 m; draft 6.5 m.

Type: Cargo ship. MMSI: 431006912.

Date/timePositionNaut miles runAvg speedWind from/ knotsBaromVisibWave heightAir tempDewpointWater temp
2018-Jun-23 22:08N 35°35' E 140°06'210.0
2018-Jun-23 21:54N 35°35' E 140°03'614.3
2018-Jun-23 21:30N 35°32' E 139°57'713.8
2018-Jun-23 21:00N 35°28' E 139°51'713.1
2018-Jun-23 20:30N 35°23' E 139°46'611.2
2018-Jun-23 20:00N 35°17' E 139°46'612.6
2018-Jun-23 19:31N 35°11' E 139°47'918.6
2018-Jun-23 19:00N 35°03' E 139°41'23617.4
2018-Jun-23 05:26N 33°42' E 135°12'920.6
2018-Jun-23 05:00N 33°48' E 135°05'1019.6
2018-Jun-23 04:30N 33°57' E 134°59'1020.3
2018-Jun-23 04:01N 34°07' E 134°59'1121.6
2018-Jun-23 03:30N 34°18' E 134°59'1019.3
2018-Jun-23 03:00N 34°25' E 135°06'917.3
2018-Jun-23 02:30N 34°30' E 135°15'4 6.9
2018-Jun-23 02:00N 34°31' E 135°19'0 0.1
2018-Jun-23 01:30N 34°31' E 135°19'0 0.4
2018-Jun-23 01:00N 34°31' E 135°19'2 4.1
2018-Jun-23 00:30N 34°32' E 135°21'2 4.6
2018-Jun-22 23:59N 34°31' E 135°24'0 0.0
2018-Jun-22 23:29N 34°31' E 135°24'0 0.0
2018-Jun-22 22:59N 34°31' E 135°24'0 0.0
2018-Jun-22 22:23N 34°31' E 135°24'0 0.0
2018-Jun-22 21:59N 34°31' E 135°24'0 0.0
2018-Jun-22 21:29N 34°31' E 135°24'0 0.4
2018-Jun-22 21:00N 34°31' E 135°24'713.1
2018-Jun-22 20:30N 34°33' E 135°17'1020.4
2018-Jun-22 20:01N 34°35' E 135°05'917.2
2018-Jun-22 19:30N 34°35' E 134°54'1019.8
2018-Jun-22 19:00N 34°31' E 134°43'1020.6
2018-Jun-22 18:31N 34°27' E 134°32'1020.7
2018-Jun-22 18:01N 34°24' E 134°20'1018.0
2018-Jun-22 17:29N 34°26' E 134°09'613.4
2018-Jun-22 17:00N 34°25' E 134°01'5 0.6
2018-Jun-22 07:58N 34°25' E 133°55'20 5.9
2018-Jun-22 04:32N 34°35' E 134°16'120.3
2018-Jun-22 04:30N 34°35' E 134°17'1020.4
2018-Jun-22 04:00N 34°34' E 134°29'1020.1
2018-Jun-22 03:30N 34°33' E 134°41'1019.7
2018-Jun-22 03:00N 34°35' E 134°53'816.9
2018-Jun-22 02:30N 34°36' E 135°03'918.8
2018-Jun-22 02:00N 34°34' E 135°14'815.9
2018-Jun-22 01:30N 34°32' E 135°24'1 1.3
2018-Jun-22 00:51N 34°31' E 135°24'0 0.0
2018-Jun-22 00:27N 34°31' E 135°24'0 0.0
2018-Jun-21 23:57N 34°31' E 135°24'0 0.0
2018-Jun-21 23:27N 34°31' E 135°24'0 0.0
2018-Jun-21 22:57N 34°31' E 135°24'0 0.3
2018-Jun-21 22:30N 34°31' E 135°24'4 8.2
2018-Jun-21 22:00N 34°32' E 135°19'1019.9
2018-Jun-21 21:30N 34°26' E 135°10'1020.4
2018-Jun-21 21:00N 34°19' E 135°01'1020.0
2018-Jun-21 20:30N 34°09' E 134°59'1020.9
2018-Jun-21 20:00N 33°58' E 134°58'1019.9
2018-Jun-21 19:30N 33°49' E 135°04'1121.0
2018-Jun-21 18:59N 33°41' E 135°12'24017.5
2018-Jun-21 05:17N 35°08' E 139°44'415.7
2018-Jun-21 05:00N 35°12' E 139°46'612.1
2018-Jun-21 04:30N 35°18' E 139°44'714.3
2018-Jun-21 04:01N 35°25' E 139°43'1019.9
2018-Jun-21 03:31N 35°31' E 139°53'12 0.4
2018-Jun-19 20:31N 35°36' E 140°07'1 2.3
2018-Jun-19 20:00N 35°35' E 140°05'612.1
2018-Jun-19 19:31N 35°33' E 139°59'815.0
2018-Jun-19 19:00N 35°28' E 139°51'714.7
2018-Jun-19 18:30N 35°23' E 139°45'611.6
2018-Jun-19 18:00N 35°17' E 139°46'612.8
2018-Jun-19 17:31N 35°10' E 139°46'917.5
2018-Jun-19 16:59N 35°02' E 139°42'23716.9
2018-Jun-19 02:59N 33°41' E 135°13'919.5
2018-Jun-19 02:30N 33°48' E 135°06'817.0
2018-Jun-19 02:00N 33°56' E 135°01'816.5
2018-Jun-19 01:31N 34°04' E 134°60'917.0
2018-Jun-19 01:00N 34°12' E 134°59'917.2
2018-Jun-19 00:30N 34°21' E 135°00'917.3
2018-Jun-19 00:00N 34°26' E 135°09'917.8
2018-Jun-18 23:29N 34°31' E 135°19'5 9.8
2018-Jun-18 23:00N 34°31' E 135°24'0 0.1
2018-Jun-18 22:27N 34°31' E 135°24'0 0.0
2018-Jun-18 21:57N 34°31' E 135°24'0 0.0
2018-Jun-18 21:15N 34°31' E 135°24'0 0.0
2018-Jun-18 21:00N 34°31' E 135°24'2 3.9
2018-Jun-18 20:29N 34°33' E 135°22'714.6
2018-Jun-18 20:00N 34°34' E 135°14'816.1
2018-Jun-18 19:30N 34°35' E 135°04'917.3
2018-Jun-18 18:58N 34°34' E 134°53'818.3
2018-Jun-18 18:30N 34°31' E 134°43'1019.3
2018-Jun-18 18:00N 34°27' E 134°33'1019.8
2018-Jun-18 17:30N 34°24' E 134°22'918.2
2018-Jun-18 17:00N 34°25' E 134°11'814.3
2018-Jun-18 16:29N 34°25' E 134°01'16 1.3
2018-Jun-18 04:00N 34°35' E 134°17'1020.3
2018-Jun-18 03:29N 34°34' E 134°30'1020.6
2018-Jun-18 03:00N 34°32' E 134°42'1221.8
2018-Jun-18 02:26N 34°36' E 134°56'920.2
2018-Jun-18 02:00N 34°36' E 135°06'1019.6
2018-Jun-18 01:31N 34°33' E 135°18'5 9.0
2018-Jun-18 00:54N 34°31' E 135°24'0 0.0
2018-Jun-18 00:24N 34°31' E 135°24'0 0.0
2018-Jun-17 23:48N 34°31' E 135°24'0 0.0
2018-Jun-17 23:30N 34°31' E 135°24'0 0.0
2018-Jun-17 23:00N 34°31' E 135°24'0 0.0
2018-Jun-17 22:30N 34°31' E 135°24'0 0.0
2018-Jun-17 22:00N 34°31' E 135°24'0 0.0
2018-Jun-17 21:24N 34°31' E 135°24'0 0.0
2018-Jun-17 21:00N 34°31' E 135°24'0 0.0
2018-Jun-17 20:30N 34°31' E 135°24'0 0.0
2018-Jun-17 19:54N 34°31' E 135°24'0 0.0
2018-Jun-17 19:30N 34°31' E 135°24'0 0.0
2018-Jun-17 19:00N 34°31' E 135°24'0 0.0
2018-Jun-17 18:30N 34°31' E 135°24'0 0.0
2018-Jun-17 18:00N 34°31' E 135°24'0 0.0
2018-Jun-17 17:30N 34°31' E 135°24'0 0.0
2018-Jun-17 16:48N 34°31' E 135°24'0 0.0
2018-Jun-17 16:30N 34°31' E 135°24'0 0.0
2018-Jun-17 16:00N 34°31' E 135°24'0 0.0
2018-Jun-17 15:30N 34°31' E 135°24'0 0.0
2018-Jun-17 15:00N 34°31' E 135°24'0 0.0
2018-Jun-17 14:30N 34°31' E 135°24'0 0.0
2018-Jun-17 14:00N 34°31' E 135°24'0 0.0
2018-Jun-17 13:30N 34°31' E 135°24'0 0.0
2018-Jun-17 12:54N 34°31' E 135°24'0 0.0
2018-Jun-17 12:30N 34°31' E 135°24'0 0.0
2018-Jun-17 12:00N 34°31' E 135°24'0 0.0
2018-Jun-17 11:30N 34°31' E 135°24'0 0.0
2018-Jun-17 11:00N 34°31' E 135°24'0 0.0
2018-Jun-17 10:30N 34°31' E 135°24'0 0.0
2018-Jun-17 10:00N 34°31' E 135°24'0 0.0
2018-Jun-17 09:30N 34°31' E 135°24'0 0.0
2018-Jun-17 09:00N 34°31' E 135°24'0 0.0
2018-Jun-17 08:24N 34°31' E 135°24'0 0.0
2018-Jun-17 08:00N 34°31' E 135°24'0 0.0
2018-Jun-17 07:30N 34°31' E 135°24'0 0.0
2018-Jun-17 07:00N 34°31' E 135°24'0 0.0
2018-Jun-17 06:30N 34°31' E 135°24'0 0.0
2018-Jun-17 06:00N 34°31' E 135°24'0 0.0
2018-Jun-17 05:30N 34°31' E 135°24'0 0.0
2018-Jun-17 04:54N 34°31' E 135°24'0 0.0
2018-Jun-17 04:18N 34°31' E 135°24'0 0.0
2018-Jun-17 03:54N 34°31' E 135°24'0 0.0
2018-Jun-17 03:18N 34°31' E 135°24'0 0.0
2018-Jun-17 02:54N 34°31' E 135°24'0 0.0
2018-Jun-17 02:30N 34°31' E 135°24'0 0.0
2018-Jun-17 02:00N 34°31' E 135°24'0 0.0
2018-Jun-17 01:24N 34°31' E 135°24'0 0.0
2018-Jun-17 01:00N 34°31' E 135°24'0 0.0
2018-Jun-17 00:30N 34°31' E 135°24'0 0.0
2018-Jun-17 00:00N 34°31' E 135°24'0 0.0
2018-Jun-16 23:30N 34°31' E 135°24'0 0.3
2018-Jun-16 23:00N 34°31' E 135°24'4 8.4
2018-Jun-16 22:30N 34°32' E 135°19'1019.3
2018-Jun-16 22:00N 34°26' E 135°10'1019.3
2018-Jun-16 21:30N 34°20' E 135°01'816.5
2018-Jun-16 21:00N 34°12' E 134°59'1019.8
2018-Jun-16 20:30N 34°02' E 134°59'1019.9
2018-Jun-16 20:00N 33°52' E 135°01'1019.7
2018-Jun-16 19:30N 33°45' E 135°08'24117.5
2018-Jun-16 05:44N 35°07' E 139°44'417.9
2018-Jun-16 05:30N 35°11' E 139°45'612.3
2018-Jun-16 05:00N 35°17' E 139°45'713.1
2018-Jun-16 04:30N 35°23' E 139°43'1020.7
2018-Jun-16 04:00N 35°30' E 139°52'918.3
2018-Jun-16 03:30N 35°35' E 140°02'3 0.4
2018-Jun-15 20:10N 35°35' E 140°06'2 9.6
2018-Jun-15 19:56N 35°35' E 140°03'715.2
2018-Jun-15 19:30N 35°32' E 139°56'816.0
2018-Jun-15 19:00N 35°26' E 139°49'612.6
2018-Jun-15 18:31N 35°21' E 139°45'510.9
2018-Jun-15 18:00N 35°16' E 139°47'712.8
2018-Jun-15 17:30N 35°09' E 139°46'917.7
2018-Jun-15 17:00N 35°02' E 139°41'23617.2
2018-Jun-15 03:18N 33°42' E 135°12'621.7
2018-Jun-15 03:01N 33°47' E 135°07'1020.4
2018-Jun-15 02:30N 33°55' E 135°00'918.0
2018-Jun-15 02:00N 34°04' E 134°59'918.1
2018-Jun-15 01:30N 34°13' E 134°59'917.6
2018-Jun-15 01:00N 34°22' E 135°01'918.1
2018-Jun-15 00:31N 34°27' E 135°10'917.6
2018-Jun-15 00:00N 34°31' E 135°19'4 4.4
2018-Jun-14 23:04N 34°31' E 135°24'0 0.0
2018-Jun-14 22:58N 34°31' E 135°24'0 0.0
2018-Jun-14 22:28N 34°31' E 135°24'0 0.0
2018-Jun-14 21:58N 34°31' E 135°24'0 0.0
2018-Jun-14 21:13N 34°31' E 135°24'0 0.2
2018-Jun-14 21:00N 34°31' E 135°24'2 4.6
2018-Jun-14 20:30N 34°33' E 135°22'714.5
2018-Jun-14 20:00N 34°33' E 135°13'917.8
2018-Jun-14 19:31N 34°36' E 135°03'1019.9
2018-Jun-14 19:00N 34°34' E 134°51'1020.4
2018-Jun-14 18:30N 34°30' E 134°40'1020.0
2018-Jun-14 18:01N 34°26' E 134°28'918.5
2018-Jun-14 17:30N 34°24' E 134°18'1318.2
2018-Jun-14 16:49N 34°26' E 134°03'514.3
2018-Jun-14 16:29N 34°25' E 133°57'19 1.6
2018-Jun-14 04:00N 34°35' E 134°17'1019.3
2018-Jun-14 03:30N 34°34' E 134°29'1020.0
2018-Jun-14 03:00N 34°33' E 134°41'1019.7
2018-Jun-14 02:30N 34°35' E 134°53'918.0
2018-Jun-14 02:00N 34°36' E 135°04'1019.4
2018-Jun-14 01:30N 34°34' E 135°15'815.1
2018-Jun-14 01:00N 34°32' E 135°24'0 0.7
2018-Jun-14 00:28N 34°31' E 135°24'0 0.0
2018-Jun-13 23:52N 34°31' E 135°24'0 0.0
2018-Jun-13 23:28N 34°31' E 135°24'0 0.0
2018-Jun-13 22:46N 34°31' E 135°24'0 0.1
2018-Jun-13 22:28N 34°31' E 135°24'  

Dump ship's entire track history